aviador You're here:

LEAM Decoded Metar

ALMERIA in SPAIN
Report Time2017-08-18 04:30:00
UTC Time2017-08-18 04:57:07
Flight Rules vfr VFR
Wind040° at 05 kt
W.Decomp.*RWY 07: 4.4 kt HW 2.4 kt LCW
W.Rank040° ranks 18
Current wind is below 040° avg. (7.2)
Visibility9999 m
Phenomena:N/A
Clouds:N/A
Expected CloudBase > 800 ft AGL from Temp-Dew spread
CeilingNone
Temp24°C (ISA +9)
Dew Point22°C (89% RH)
QNH1016 hPa
Density Alt1,375 ft
Elevation69 ft
Report Wrong Elevation
Raw Report
LEAM 180430Z 04005KT CAVOK 24/22 Q1016=

Extra information for LEAM:More info

Metar Taf Metar & Taf Last 4 Metars F.Rules Stats Wind Profile Meteogram Temp Stats Airport Information Weather charts Add Link Nearby VenuesMetar ALERT Operation Metar Decoded Social comments